createdAt,value
2022-11-17T00:00:41.999Z,99.90
2022-11-17T00:04:47.487Z,99.90
2022-11-17T00:08:50.975Z,99.90
2022-11-17T00:13:11.506Z,99.90
2022-11-17T00:17:15.947Z,99.90
2022-11-17T00:21:19.941Z,99.90
2022-11-17T00:25:23.264Z,99.90
2022-11-17T00:29:26.642Z,99.90
2022-11-17T00:33:47.220Z,99.90
2022-11-17T00:38:05.709Z,99.90
2022-11-17T00:42:09.079Z,99.90
2022-11-17T00:46:12.965Z,99.90
2022-11-17T00:50:16.704Z,99.90
2022-11-17T00:54:24.168Z,99.90
2022-11-17T00:58:30.002Z,99.90
2022-11-17T01:02:35.263Z,99.90
2022-11-17T01:06:41.926Z,99.90
2022-11-17T01:10:55.526Z,99.90
2022-11-17T01:15:03.873Z,99.90
2022-11-17T01:19:11.055Z,99.90
2022-11-17T01:23:20.008Z,99.90
2022-11-17T01:27:26.711Z,99.90
2022-11-17T01:31:33.646Z,99.90
2022-11-17T01:35:38.695Z,99.90
2022-11-17T01:39:43.442Z,99.90
2022-11-17T01:43:54.365Z,99.90
2022-11-17T01:48:05.171Z,99.90
2022-11-17T01:52:19.327Z,99.90
2022-11-17T01:56:28.725Z,99.90
2022-11-17T02:00:45.087Z,99.90
2022-11-17T02:04:57.451Z,99.90
2022-11-17T02:09:07.241Z,99.90
2022-11-17T02:13:14.549Z,99.90
2022-11-17T02:17:24.918Z,99.90
2022-11-17T02:22:05.835Z,99.90
2022-11-17T02:27:28.618Z,99.90
2022-11-17T02:31:43.039Z,99.90
2022-11-17T02:35:54.374Z,99.90
2022-11-17T02:40:05.172Z,99.90
2022-11-17T02:44:34.834Z,99.90
2022-11-17T02:48:51.008Z,99.90
2022-11-17T02:53:10.943Z,99.90
2022-11-17T02:57:33.919Z,99.90
2022-11-17T03:02:23.747Z,99.90
2022-11-17T03:06:49.824Z,99.90
2022-11-17T03:11:03.968Z,99.90
2022-11-17T03:15:33.873Z,99.90
2022-11-17T03:19:49.281Z,99.90
2022-11-17T03:24:10.268Z,99.90
2022-11-17T03:28:18.460Z,99.90
2022-11-17T03:32:39.100Z,99.90
2022-11-17T03:36:58.366Z,99.90
2022-11-17T03:41:19.289Z,99.90
2022-11-17T03:45:34.479Z,99.90
2022-11-17T03:49:55.713Z,99.90
2022-11-17T03:54:18.993Z,99.90
2022-11-17T03:58:32.766Z,99.90
2022-11-17T04:02:39.156Z,99.90
2022-11-17T04:06:46.224Z,99.90
2022-11-17T04:11:17.974Z,99.90
2022-11-17T04:20:22.379Z,99.90
2022-11-17T04:24:31.809Z,99.90
2022-11-17T04:28:40.566Z,99.90
2022-11-17T04:32:51.568Z,99.90
2022-11-17T04:37:06.970Z,99.90
2022-11-17T04:41:36.782Z,99.90
2022-11-17T04:46:18.625Z,99.90
2022-11-17T04:50:32.301Z,99.90
2022-11-17T04:54:56.926Z,99.90
2022-11-17T04:59:04.062Z,99.90
2022-11-17T05:03:12.321Z,99.90
2022-11-17T05:07:22.981Z,99.90
2022-11-17T05:11:46.875Z,99.90
2022-11-17T05:16:09.066Z,99.90
2022-11-17T05:20:17.971Z,99.90
2022-11-17T05:24:41.629Z,99.90
2022-11-17T05:28:53.479Z,99.90
2022-11-17T05:33:13.630Z,99.90
2022-11-17T05:37:18.594Z,99.90
2022-11-17T05:41:29.733Z,99.90
2022-11-17T05:45:34.775Z,99.90
2022-11-17T05:49:42.365Z,99.90
2022-11-17T05:53:45.999Z,99.90
2022-11-17T05:57:52.630Z,99.90
2022-11-17T06:02:02.078Z,99.90
2022-11-17T06:06:06.242Z,99.90
2022-11-17T06:10:10.574Z,99.90
2022-11-17T06:14:15.622Z,99.90
2022-11-17T06:18:20.200Z,99.90
2022-11-17T06:22:24.707Z,99.90
2022-11-17T06:26:31.064Z,99.90
2022-11-17T06:30:39.495Z,99.90
2022-11-17T06:34:56.307Z,99.90
2022-11-17T06:39:02.330Z,99.90
2022-11-17T06:43:11.034Z,99.90
2022-11-17T06:47:21.612Z,99.90
2022-11-17T06:51:26.445Z,99.90
2022-11-17T06:55:32.570Z,99.90
2022-11-17T06:59:37.880Z,99.90
2022-11-17T07:03:46.643Z,99.90
2022-11-17T07:07:51.726Z,99.90
2022-11-17T07:11:58.590Z,99.90
2022-11-17T07:16:06.121Z,99.90
2022-11-17T07:20:12.061Z,99.90
2022-11-17T07:24:24.621Z,99.90
2022-11-17T07:28:28.682Z,99.90
2022-11-17T07:32:33.492Z,99.90
2022-11-17T07:36:38.256Z,99.90
2022-11-17T07:40:41.914Z,99.90
2022-11-17T07:45:04.169Z,99.90
2022-11-17T07:49:07.488Z,99.90
2022-11-17T07:53:12.387Z,99.90
2022-11-17T07:57:16.235Z,99.90
2022-11-17T08:01:19.714Z,99.90
2022-11-17T08:05:23.301Z,99.90
2022-11-17T08:09:28.016Z,99.90
2022-11-17T08:13:31.596Z,99.90
2022-11-17T08:17:35.062Z,99.90
2022-11-17T08:21:38.703Z,99.90
2022-11-17T08:25:43.390Z,99.90
2022-11-17T08:29:46.815Z,99.90
2022-11-17T08:33:50.034Z,99.90
2022-11-17T08:37:53.630Z,99.90
2022-11-17T08:41:58.286Z,99.90
2022-11-17T08:46:02.569Z,99.90
2022-11-17T08:50:07.372Z,99.90
2022-11-17T08:54:12.699Z,99.90
2022-11-17T08:58:17.813Z,99.90
2022-11-17T09:02:21.104Z,99.90
2022-11-17T09:06:24.449Z,99.90
2022-11-17T09:10:27.861Z,99.90
2022-11-17T09:14:32.740Z,99.90
2022-11-17T09:18:37.206Z,99.90
2022-11-17T09:22:40.919Z,99.90
2022-11-17T09:26:44.867Z,99.90
2022-11-17T09:30:49.601Z,99.90
2022-11-17T09:34:52.976Z,99.90
2022-11-17T09:38:56.421Z,99.90
2022-11-17T09:42:59.784Z,99.90
2022-11-17T09:47:15.612Z,99.90
2022-11-17T09:51:21.688Z,99.90
2022-11-17T09:55:34.237Z,99.90
2022-11-17T09:59:38.771Z,99.90
2022-11-17T10:03:46.388Z,99.90
2022-11-17T10:07:52.682Z,99.90
2022-11-17T10:12:07.224Z,99.90
2022-11-17T10:16:14.504Z,99.90
2022-11-17T10:20:19.992Z,99.90
2022-11-17T10:24:37.122Z,99.90
2022-11-17T10:28:40.740Z,99.90
2022-11-17T10:32:50.486Z,99.90
2022-11-17T10:36:55.133Z,99.90
2022-11-17T10:41:01.883Z,99.90
2022-11-17T10:45:06.678Z,99.90
2022-11-17T10:49:25.863Z,99.90
2022-11-17T10:53:42.970Z,99.20
2022-11-17T10:57:51.268Z,96.00
2022-11-17T11:01:54.758Z,93.30
2022-11-17T11:06:22.538Z,89.20
2022-11-17T11:10:33.088Z,90.60
2022-11-17T11:14:40.917Z,93.10
2022-11-17T11:18:44.357Z,94.30
2022-11-17T11:22:58.362Z,96.30
2022-11-17T11:27:13.269Z,97.50
2022-11-17T11:31:25.741Z,98.60
2022-11-17T11:35:55.011Z,99.90
2022-11-17T11:40:11.128Z,99.90
2022-11-17T11:44:55.524Z,97.80
2022-11-17T11:49:04.654Z,98.80
2022-11-17T11:53:17.065Z,99.80
2022-11-17T11:57:26.359Z,99.90
2022-11-17T12:01:38.215Z,99.90
2022-11-17T12:05:50.260Z,99.90
2022-11-17T12:10:04.036Z,99.90
2022-11-17T12:14:08.256Z,96.60
2022-11-17T12:18:33.510Z,92.70
2022-11-17T12:22:59.425Z,90.10
2022-11-17T12:27:33.163Z,83.30
2022-11-17T12:31:44.863Z,82.40
2022-11-17T12:36:31.147Z,82.10
2022-11-17T12:40:45.294Z,78.30
2022-11-17T12:45:09.466Z,74.50
2022-11-17T12:49:21.414Z,74.40
2022-11-17T12:53:54.937Z,73.10
2022-11-17T12:58:10.475Z,74.20
2022-11-17T13:02:47.861Z,76.40
2022-11-17T13:07:02.266Z,79.60
2022-11-17T13:11:12.765Z,88.50
2022-11-17T13:15:24.109Z,92.80
2022-11-17T13:19:39.392Z,94.90
2022-11-17T13:23:45.936Z,96.80
2022-11-17T13:27:56.025Z,98.30
2022-11-17T13:32:17.651Z,99.10
2022-11-17T13:36:24.979Z,99.90
2022-11-17T13:40:28.627Z,99.90
2022-11-17T13:44:34.186Z,99.90
2022-11-17T13:48:39.442Z,99.90
2022-11-17T13:52:46.903Z,99.90
2022-11-17T13:56:54.523Z,99.90
2022-11-17T14:01:00.291Z,99.90
2022-11-17T14:05:23.999Z,99.90
2022-11-17T14:09:28.764Z,99.90
2022-11-17T14:13:33.641Z,99.90
2022-11-17T14:17:38.639Z,99.90
2022-11-17T14:22:00.328Z,99.90
2022-11-17T14:26:03.646Z,99.90
2022-11-17T14:30:08.056Z,99.90
2022-11-17T14:34:13.302Z,99.90
2022-11-17T14:38:23.004Z,99.90
2022-11-17T14:42:27.524Z,99.90
2022-11-17T14:46:32.535Z,99.90
2022-11-17T14:50:40.982Z,99.90
2022-11-17T14:54:52.583Z,99.90
2022-11-17T14:58:59.289Z,99.90
2022-11-17T15:03:02.769Z,99.90
2022-11-17T15:07:07.644Z,99.90
2022-11-17T15:11:16.354Z,99.90
2022-11-17T15:15:20.068Z,99.90
2022-11-17T15:19:23.376Z,99.90
2022-11-17T15:23:28.112Z,99.90
2022-11-17T15:27:32.231Z,99.90
2022-11-17T15:31:35.642Z,99.90
2022-11-17T15:35:38.989Z,99.90
2022-11-17T15:39:43.730Z,99.90
2022-11-17T15:43:47.191Z,99.90
2022-11-17T15:47:50.527Z,99.90
2022-11-17T15:51:54.624Z,99.90
2022-11-17T15:56:03.689Z,99.90
2022-11-17T16:00:08.289Z,99.90
2022-11-17T16:04:13.176Z,99.90
2022-11-17T16:08:16.421Z,99.90
2022-11-17T16:12:21.058Z,99.90
2022-11-17T16:16:25.565Z,99.90
2022-11-17T16:20:28.898Z,99.90
2022-11-17T16:24:32.188Z,99.90
2022-11-17T16:28:36.916Z,99.90
2022-11-17T16:32:40.267Z,99.90
2022-11-17T16:36:44.938Z,99.90
2022-11-17T16:40:48.882Z,99.90
2022-11-17T16:44:57.228Z,99.90
2022-11-17T16:49:03.089Z,99.90
2022-11-17T16:53:06.550Z,99.90
2022-11-17T16:57:16.562Z,99.90
2022-11-17T17:01:24.932Z,99.90
2022-11-17T17:05:36.666Z,99.90
2022-11-17T17:09:40.859Z,99.90
2022-11-17T17:13:44.557Z,99.90
2022-11-17T17:17:50.447Z,99.90
2022-11-17T17:21:54.109Z,99.90
2022-11-17T17:26:05.967Z,99.90
2022-11-17T17:30:11.118Z,99.90
2022-11-17T17:34:17.211Z,99.90
2022-11-17T17:38:22.407Z,99.90
2022-11-17T17:42:26.668Z,99.90
2022-11-17T17:46:34.678Z,99.90
2022-11-17T17:50:41.514Z,99.90
2022-11-17T17:54:45.622Z,99.90
2022-11-17T17:58:51.821Z,99.90
2022-11-17T18:02:58.009Z,99.90
2022-11-17T18:07:04.219Z,99.90
2022-11-17T18:11:10.387Z,99.90
2022-11-17T18:15:14.456Z,99.90
2022-11-17T18:19:26.911Z,99.90
2022-11-17T18:23:38.894Z,99.90
2022-11-17T18:27:55.221Z,99.90
2022-11-17T18:31:59.649Z,99.90
2022-11-17T18:36:10.491Z,99.90
2022-11-17T18:40:16.667Z,99.90
2022-11-17T18:44:26.472Z,99.90
2022-11-17T18:48:35.695Z,99.90
2022-11-17T18:52:43.783Z,99.90
2022-11-17T18:56:50.928Z,99.90
2022-11-17T19:00:55.266Z,99.90
2022-11-17T19:05:01.826Z,99.90
2022-11-17T19:09:09.733Z,99.90
2022-11-17T19:13:16.910Z,99.90
2022-11-17T19:17:24.150Z,99.90
2022-11-17T19:21:31.794Z,99.90
2022-11-17T19:25:39.682Z,99.90
2022-11-17T19:29:47.652Z,99.90
2022-11-17T19:33:55.711Z,99.90
2022-11-17T19:38:00.212Z,99.90
2022-11-17T19:42:05.789Z,99.90
2022-11-17T19:46:13.780Z,99.90
2022-11-17T19:50:21.370Z,99.90
2022-11-17T19:54:33.467Z,99.90
2022-11-17T19:58:41.517Z,99.90
2022-11-17T20:03:02.253Z,99.90
2022-11-17T20:07:12.659Z,99.90
2022-11-17T20:11:20.677Z,99.90
2022-11-17T20:15:34.427Z,99.90
2022-11-17T20:19:41.250Z,99.90
2022-11-17T20:23:46.292Z,99.90
2022-11-17T20:27:52.038Z,99.90
2022-11-17T20:31:56.542Z,99.90
2022-11-17T20:36:08.812Z,99.90
2022-11-17T20:40:19.770Z,99.90
2022-11-17T20:44:29.882Z,99.90
2022-11-17T20:48:35.692Z,99.90
2022-11-17T20:52:44.237Z,99.90
2022-11-17T20:56:50.043Z,99.90
2022-11-17T21:00:55.583Z,99.90
2022-11-17T21:04:59.693Z,99.90
2022-11-17T21:09:04.629Z,99.90
2022-11-17T21:13:08.967Z,99.90
2022-11-17T21:17:32.998Z,99.90
2022-11-17T21:21:38.473Z,99.90
2022-11-17T21:25:43.583Z,99.90
2022-11-17T21:29:48.066Z,99.90
2022-11-17T21:33:54.252Z,99.90
2022-11-17T21:37:57.913Z,99.90
2022-11-17T21:42:02.624Z,99.90
2022-11-17T21:46:07.274Z,99.90
2022-11-17T21:50:11.654Z,99.90
2022-11-17T21:54:15.041Z,99.90
2022-11-17T21:58:19.725Z,99.90
2022-11-17T22:02:23.358Z,99.90
2022-11-17T22:06:27.572Z,99.90
2022-11-17T22:10:30.847Z,99.90
2022-11-17T22:14:35.529Z,99.90
2022-11-17T22:18:39.108Z,99.90
2022-11-17T22:22:42.350Z,99.90
2022-11-17T22:26:46.403Z,99.90
2022-11-17T22:30:51.166Z,99.90
2022-11-17T22:34:55.741Z,99.90
2022-11-17T22:38:58.999Z,99.90
2022-11-17T22:43:05.231Z,99.90
2022-11-17T22:47:10.923Z,99.90
2022-11-17T22:51:36.711Z,99.90
2022-11-17T22:55:40.031Z,99.90
2022-11-17T22:59:43.339Z,99.90
2022-11-17T23:03:48.901Z,99.90
2022-11-17T23:07:52.197Z,99.90
2022-11-17T23:11:55.494Z,99.90
2022-11-17T23:15:59.157Z,99.90
2022-11-17T23:20:04.366Z,99.90
2022-11-17T23:24:09.971Z,99.90
2022-11-17T23:28:13.357Z,99.90
2022-11-17T23:32:16.624Z,99.90
2022-11-17T23:36:23.045Z,99.90
2022-11-17T23:40:26.317Z,99.90
2022-11-17T23:44:29.570Z,99.90
2022-11-17T23:48:32.874Z,99.90
2022-11-17T23:52:37.593Z,99.90
2022-11-17T23:56:40.972Z,99.90
